M V Stampede — V70B4 — position and weather

sailwx.info

Track history (hours):
 
Tides and Currents Weather Stations Pressure Air Temp Water Temp Dewpoint Dewpoint Depression Visibility Wind Speed Wind Dir Waves Ship Positions

M V Stampede

Last reported at 2015-Apr-28 11:22 UTC. Time now 2015-Apr-28 11:55 UTC.
Position N 26°07' W 080°06'.

Length 35 m; draft 3.2 m.

Type: Pleasure craft. MMSI: 538070463.

Date/timePositionNaut miles runAvg speedWind from/ knotsBaromVisibWave heightAir tempDewpointWater temp
2015-Apr-28 11:22N 26°07' W 080°06'0 0.0
2015-Apr-28 10:22N 26°07' W 080°06'0 0.0
2015-Apr-28 09:25N 26°07' W 080°06'0 0.0
2015-Apr-28 08:25N 26°07' W 080°06'0 0.0
2015-Apr-28 07:22N 26°07' W 080°06'0 0.0
2015-Apr-28 06:28N 26°07' W 080°06'0 0.0
2015-Apr-28 05:28N 26°07' W 080°06'0 0.0
2015-Apr-28 04:31N 26°07' W 080°06'0 0.0
2015-Apr-28 03:28N 26°07' W 080°06'0 0.0
2015-Apr-28 02:31N 26°07' W 080°06'0 0.0
2015-Apr-28 01:31N 26°07' W 080°06'0 0.0
2015-Apr-28 00:31N 26°07' W 080°06'0 0.0
2015-Apr-27 23:31N 26°07' W 080°06'0 0.0
2015-Apr-27 22:31N 26°07' W 080°06'0 0.0
2015-Apr-27 21:31N 26°07' W 080°06'0 0.2
2015-Apr-27 20:33N 26°07' W 080°07'5 4.6
2015-Apr-27 19:33N 26°06' W 080°02'1010.5
2015-Apr-27 18:33N 26°08' W 079°50'9 9.4
2015-Apr-27 17:33N 26°10' W 079°40'9 8.6
2015-Apr-27 16:33N 26°12' W 079°31'21 9.2
2015-Apr-27 14:19N 26°19' W 079°09'7 9.5
2015-Apr-27 13:33N 26°21' W 079°01'10 9.6
2015-Apr-27 12:33N 26°25' W 078°51'9 9.3
2015-Apr-27 11:33N 26°28' W 078°42'4 3.1
2015-Apr-27 10:25N 26°30' W 078°38'2 0.1
2015-Apr-26 19:04N 26°31' W 078°36'  
2015-Apr-20 20:28N 26°18' W 079°12'1010.7
2015-Apr-20 19:33N 26°15' W 079°23'1110.5
2015-Apr-20 18:33N 26°12' W 079°34'1010.5
2015-Apr-20 17:33N 26°09' W 079°45'1010.4
2015-Apr-20 16:33N 26°07' W 079°56'9 8.8
2015-Apr-20 15:33N 26°06' W 080°06'1 1.1
2015-Apr-20 14:32N 26°07' W 080°06'  
Track history (hours):
 
Tides and Currents Weather Stations Pressure Air Temp Water Temp Dewpoint Dewpoint Depression Visibility Wind Speed Wind Dir Waves Ship Positions

M V Stampede

Last reported at 2015-Apr-28 11:22 UTC. Time now 2015-Apr-28 11:55 UTC.
Position N 26°07' W 080°06'.

Length 35 m; draft 3.2 m.

Type: Pleasure craft. MMSI: 538070463.

Date/timePositionNaut miles runAvg speedWind from/ knotsBaromVisibWave heightAir tempDewpointWater temp
2015-Apr-28 11:22N 26°07' W 080°06'0 0.0
2015-Apr-28 10:22N 26°07' W 080°06'0 0.0
2015-Apr-28 09:25N 26°07' W 080°06'0 0.0
2015-Apr-28 08:25N 26°07' W 080°06'0 0.0
2015-Apr-28 07:22N 26°07' W 080°06'0 0.0
2015-Apr-28 06:28N 26°07' W 080°06'0 0.0
2015-Apr-28 05:28N 26°07' W 080°06'0 0.0
2015-Apr-28 04:31N 26°07' W 080°06'0 0.0
2015-Apr-28 03:28N 26°07' W 080°06'0 0.0
2015-Apr-28 02:31N 26°07' W 080°06'0 0.0
2015-Apr-28 01:31N 26°07' W 080°06'0 0.0
2015-Apr-28 00:31N 26°07' W 080°06'0 0.0
2015-Apr-27 23:31N 26°07' W 080°06'0 0.0
2015-Apr-27 22:31N 26°07' W 080°06'0 0.0
2015-Apr-27 21:31N 26°07' W 080°06'0 0.2
2015-Apr-27 20:33N 26°07' W 080°07'5 4.6
2015-Apr-27 19:33N 26°06' W 080°02'1010.5
2015-Apr-27 18:33N 26°08' W 079°50'9 9.4
2015-Apr-27 17:33N 26°10' W 079°40'9 8.6
2015-Apr-27 16:33N 26°12' W 079°31'21 9.2
2015-Apr-27 14:19N 26°19' W 079°09'7 9.5
2015-Apr-27 13:33N 26°21' W 079°01'10 9.6
2015-Apr-27 12:33N 26°25' W 078°51'9 9.3
2015-Apr-27 11:33N 26°28' W 078°42'4 3.1
2015-Apr-27 10:25N 26°30' W 078°38'2 0.1
2015-Apr-26 19:04N 26°31' W 078°36'  
2015-Apr-20 20:28N 26°18' W 079°12'1010.7
2015-Apr-20 19:33N 26°15' W 079°23'1110.5
2015-Apr-20 18:33N 26°12' W 079°34'1010.5
2015-Apr-20 17:33N 26°09' W 079°45'1010.4
2015-Apr-20 16:33N 26°07' W 079°56'9 8.8
2015-Apr-20 15:33N 26°06' W 080°06'1 1.1
2015-Apr-20 14:32N 26°07' W 080°06'  

Dump ship's entire track history